Time;durP1;ratioP1;P1;durP2;ratioP2;P2;SDS_P1;SDS_P2;PMS_P1;PMS_P2;Temp;Humidity;BMP_temperature;BMP_pressure;BME280_temperature;BME280_humidity;BME280_pressure;Samples;Min_cycle;Max_cycle;Signal;HPM_P1;HPM_P2
2023/09/21 00:01:53;;;;;;;5.55;2.00;;;;;;;14.48;100.00;96380.81;5003751;28;20042;-60
2023/09/21 00:04:21;;;;;;;4.40;1.85;;;;;;;14.59;100.00;96372.47;5005969;28;20038;-60
2023/09/21 00:06:49;;;;;;;4.45;2.15;;;;;;;14.64;100.00;96370.44;5004682;28;20034;-60
2023/09/21 00:09:15;;;;;;;4.60;1.77;;;;;;;14.65;100.00;96373.97;5006079;28;20046;-59
2023/09/21 00:11:42;;;;;;;3.75;1.88;;;;;;;14.72;100.00;96371.66;5004044;28;20037;-60
2023/09/21 00:14:09;;;;;;;4.75;2.05;;;;;;;14.76;100.00;96374.56;4998228;28;20057;-59
2023/09/21 00:16:35;;;;;;;5.45;1.98;;;;;;;14.80;100.00;96365.53;5004411;28;20510;-59
2023/09/21 00:19:07;;;;;;;4.68;1.80;;;;;;;14.80;100.00;96361.97;5004390;28;20048;-60
2023/09/21 00:21:34;;;;;;;5.57;1.98;;;;;;;14.87;99.79;96359.66;5005070;28;20046;-60
2023/09/21 00:24:15;;;;;;;3.53;1.90;;;;;;;14.93;98.93;96358.41;5004963;28;20677;-60
2023/09/21 00:26:46;;;;;;;;;;;;;;;14.96;98.60;96357.00;5012467;28;20033;-58
2023/09/21 00:29:13;;;;;;;4.17;1.93;;;;;;;14.98;98.42;96345.81;5003596;28;20564;-60
2023/09/21 00:31:39;;;;;;;4.10;1.95;;;;;;;14.94;98.46;96346.44;5011377;28;20300;-60
2023/09/21 00:34:08;;;;;;;5.88;1.77;;;;;;;14.69;100.00;96348.56;5005366;28;20048;-60
2023/09/21 00:36:35;;;;;;;3.83;2.15;;;;;;;14.58;100.00;96338.97;5012065;28;20033;-60
2023/09/21 00:39:03;;;;;;;3.58;1.92;;;;;;;14.51;100.00;96335.81;5003177;28;20046;-59
2023/09/21 00:41:33;;;;;;;3.33;1.63;;;;;;;14.45;100.00;96337.88;5006167;28;20537;-60
2023/09/21 00:44:07;;;;;;;4.55;2.00;;;;;;;14.43;100.00;96345.53;5005464;28;20536;-59
2023/09/21 00:46:35;;;;;;;5.53;2.63;;;;;;;14.44;100.00;96339.78;5011605;28;20048;-60
2023/09/21 00:49:04;;;;;;;3.45;1.80;;;;;;;14.43;100.00;96342.81;5004126;28;20520;-59
2023/09/21 00:51:33;;;;;;;5.85;2.03;;;;;;;14.29;100.00;96331.91;5019931;28;20046;-60
2023/09/21 00:54:00;;;;;;;6.03;1.88;;;;;;;14.19;100.00;96343.78;4986326;28;20054;-60
2023/09/21 00:56:28;;;;;;;4.95;2.15;;;;;;;14.12;100.00;96335.22;5005600;28;20045;-58
2023/09/21 00:59:00;;;;;;;5.63;2.10;;;;;;;14.10;100.00;96334.69;5004374;28;20029;-60
2023/09/21 01:01:28;;;;;;;6.70;2.37;;;;;;;14.08;100.00;96332.28;5005166;28;20732;-60
2023/09/21 01:03:58;;;;;;;3.65;1.83;;;;;;;14.10;100.00;96331.97;5003433;28;20100;-60
2023/09/21 01:06:25;;;;;;;3.22;1.63;;;;;;;14.15;100.00;96323.72;5004928;28;20046;-60
2023/09/21 01:08:51;;;;;;;3.92;1.75;;;;;;;14.21;100.00;96321.69;5002161;28;20038;-60
2023/09/21 01:11:19;;;;;;;5.50;2.03;;;;;;;14.35;100.00;96314.38;4987182;28;20057;-59
2023/09/21 01:13:51;;;;;;;3.92;1.70;;;;;;;14.59;100.00;96318.00;5003426;28;20033;-60
2023/09/21 01:16:18;;;;;;;3.88;1.98;;;;;;;14.72;99.29;96319.06;5002621;28;20061;-60
2023/09/21 01:18:46;;;;;;;4.85;1.83;;;;;;;14.80;98.11;96318.38;5001767;28;20068;-59
2023/09/21 01:21:17;;;;;;;6.20;2.00;;;;;;;14.59;100.00;96318.00;4996089;28;20037;-60
2023/09/21 01:23:45;;;;;;;4.93;2.53;;;;;;;14.37;100.00;96309.41;5003989;28;20066;-59
2023/09/21 01:26:14;;;;;;;6.95;2.47;;;;;;;14.38;100.00;96313.75;5001769;28;20062;-59
2023/09/21 01:28:41;;;;;;;3.40;1.80;;;;;;;14.52;100.00;96312.94;5000906;28;20126;-59
2023/09/21 01:31:09;;;;;;;3.38;1.70;;;;;;;14.74;98.52;96306.75;5005670;28;20123;-59
2023/09/21 01:33:36;;;;;;;4.05;1.63;;;;;;;14.90;97.27;96309.19;5003649;28;20721;-59
2023/09/21 01:36:07;;;;;;;4.63;2.00;;;;;;;14.90;97.53;96306.47;4990250;28;20042;-60
2023/09/21 01:38:37;;;;;;;5.97;1.80;;;;;;;14.83;97.92;96296.75;4986189;28;20029;-60
2023/09/21 01:41:06;;;;;;;3.53;1.92;;;;;;;14.93;97.60;96300.41;5002151;28;20125;-59
2023/09/21 01:43:35;;;;;;;3.38;1.83;;;;;;;15.05;96.64;96295.22;5006596;28;20659;-60
2023/09/21 01:46:04;;;;;;;4.43;1.70;;;;;;;15.20;94.96;96290.50;5002645;28;20068;-59
2023/09/21 01:48:32;;;;;;;3.20;1.90;;;;;;;15.09;97.10;96287.22;4988718;28;20041;-60
2023/09/21 01:50:59;;;;;;;5.32;1.70;;;;;;;15.00;97.96;96291.81;4984270;28;20069;-60
2023/09/21 01:53:26;;;;;;;4.07;1.80;;;;;;;14.92;98.47;96288.69;5003478;28;20072;-60
2023/09/21 01:55:52;;;;;;;5.47;2.22;;;;;;;14.92;98.68;96285.97;5009174;28;20645;-59
2023/09/21 01:58:23;;;;;;;5.30;1.80;;;;;;;14.93;98.71;96273.16;4987947;28;20042;-59
2023/09/21 02:00:51;;;;;;;4.28;1.75;;;;;;;14.99;98.53;96269.19;4989412;28;20564;-59
2023/09/21 02:03:28;;;;;;;4.63;2.08;;;;;;;15.06;98.28;96269.56;5003205;28;20467;-59
2023/09/21 02:05:59;;;;;;;4.55;1.92;;;;;;;15.15;97.54;96269.63;5002483;28;20057;-58
2023/09/21 02:08:25;;;;;;;3.30;1.75;;;;;;;15.27;96.73;96269.09;5003699;28;20064;-59
2023/09/21 02:10:52;;;;;;;4.22;2.00;;;;;;;15.40;96.02;96267.38;5002452;28;20037;-59
2023/09/21 02:13:20;;;;;;;3.08;1.60;;;;;;;15.48;95.45;96268.56;5002973;28;20038;-59
2023/09/21 02:15:56;;;;;;;3.55;1.88;;;;;;;15.61;94.21;96264.16;5000127;28;20052;-60
2023/09/21 02:18:23;;;;;;;4.35;1.70;;;;;;;15.74;93.58;96257.03;5003818;28;20038;-59
2023/09/21 02:20:50;;;;;;;3.85;1.98;;;;;;;15.88;92.53;96261.56;4984897;28;20096;-60
2023/09/21 02:23:21;;;;;;;3.80;1.70;;;;;;;15.95;91.90;96262.75;5002419;28;20042;-58
2023/09/21 02:25:48;;;;;;;3.88;1.80;;;;;;;16.00;91.36;96253.63;5002692;28;20046;-60
2023/09/21 02:28:15;;;;;;;3.92;1.95;;;;;;;16.02;91.40;96256.03;5003651;28;20045;-59
2023/09/21 02:30:47;;;;;;;3.60;1.88;;;;;;;16.07;91.09;96250.44;5002528;28;20406;-59
2023/09/21 02:33:18;;;;;;;5.47;1.80;;;;;;;16.11;90.66;96246.75;4995365;28;20045;-60
2023/09/21 02:35:46;;;;;;;4.13;1.95;;;;;;;16.07;91.35;96237.56;5001786;28;20480;-60
2023/09/21 02:38:16;;;;;;;3.85;2.10;;;;;;;16.09;91.37;96238.09;5002915;28;20053;-60
2023/09/21 02:40:45;;;;;;;5.77;2.20;;;;;;;15.96;92.49;96230.81;4985137;28;20049;-60
2023/09/21 02:43:13;;;;;;;3.75;1.80;;;;;;;15.93;92.86;96231.41;5004591;28;20030;-60
2023/09/21 02:45:39;;;;;;;4.50;1.88;;;;;;;15.87;93.24;96228.00;4985995;28;20140;-60
2023/09/21 02:48:08;;;;;;;4.43;1.85;;;;;;;15.84;93.40;96226.72;5002869;28;20037;-60
2023/09/21 02:50:35;;;;;;;3.42;1.83;;;;;;;15.85;92.95;96227.53;4985542;28;20050;-59
2023/09/21 02:53:08;;;;;;;4.57;1.85;;;;;;;15.91;92.93;96218.06;4984578;28;20042;-59
2023/09/21 02:55:36;;;;;;;3.40;1.70;;;;;;;15.99;92.12;96220.06;4985375;28;20038;-60
2023/09/21 02:58:12;;;;;;;3.03;1.50;;;;;;;16.04;91.35;96213.66;4985313;28;20049;-59
2023/09/21 03:00:49;;;;;;;5.18;1.88;;;;;;;16.15;90.56;96216.09;4984927;28;20061;-60
2023/09/21 03:03:19;;;;;;;4.88;2.00;;;;;;;16.23;90.06;96212.56;4984843;28;20042;-60
2023/09/21 03:05:49;;;;;;;4.18;1.77;;;;;;;16.16;90.89;96213.03;4982905;28;20493;-60
2023/09/21 03:08:17;;;;;;;4.72;1.85;;;;;;;16.11;91.25;96205.78;5014632;28;20081;-59
2023/09/21 03:10:49;;;;;;;4.75;1.95;;;;;;;16.14;91.40;96201.63;4985781;28;20448;-59
2023/09/21 03:13:18;;;;;;;5.18;2.00;;;;;;;16.09;91.94;96201.78;5005356;28;20048;-60
2023/09/21 03:15:52;;;;;;;6.63;2.72;;;;;;;16.06;92.25;96202.41;4988767;28;20042;-59
2023/09/21 03:18:20;;;;;;;2.67;1.58;;;;;;;15.94;93.20;96198.38;5010804;28;20112;-59
2023/09/21 03:20:51;;;;;;;4.90;2.03;;;;;;;15.88;94.07;96205.03;4987528;28;20049;-59
2023/09/21 03:23:20;;;;;;;5.28;2.00;;;;;;;15.84;94.53;96195.88;4987632;28;20140;-60
2023/09/21 03:25:49;;;;;;;3.30;1.45;;;;;;;15.83;95.07;96202.47;5000272;28;20065;-60
2023/09/21 03:28:18;;;;;;;3.92;1.95;;;;;;;15.92;95.32;96200.56;4989364;28;20118;-59
2023/09/21 03:30:47;;;;;;;3.83;1.98;;;;;;;15.98;95.81;96207.53;5005703;28;20034;-60
2023/09/21 03:33:15;;;;;;;5.15;2.42;;;;;;;16.02;96.63;96195.97;5005567;28;20599;-59
2023/09/21 03:35:43;;;;;;;4.78;2.08;;;;;;;16.05;97.42;96204.34;5000798;28;20099;-58
2023/09/21 03:38:12;;;;;;;4.78;1.90;;;;;;;16.02;97.27;96194.03;5003051;28;20042;-60
2023/09/21 03:40:43;;;;;;;4.68;2.47;;;;;;;15.90;99.35;96199.28;5005900;28;20050;-60
2023/09/21 03:43:12;;;;;;;4.75;2.08;;;;;;;15.74;100.00;96208.69;4992359;28;20452;-60
2023/09/21 03:45:40;;;;;;;3.75;2.03;;;;;;;15.83;99.45;96197.81;4989171;28;20045;-59
2023/09/21 03:48:08;;;;;;;6.10;2.13;;;;;;;15.92;99.02;96202.50;5005123;28;20054;-60
2023/09/21 03:50:37;;;;;;;3.88;2.03;;;;;;;15.85;100.00;96203.75;4989703;28;20037;-60
2023/09/21 03:53:08;;;;;;;4.72;2.08;;;;;;;15.81;100.00;96204.72;5004223;28;20077;-59
2023/09/21 03:55:37;;;;;;;5.18;2.33;;;;;;;15.66;100.00;96195.03;4987645;28;20038;-58
2023/09/21 03:58:05;;;;;;;4.53;2.33;;;;;;;15.65;100.00;96199.66;4984572;28;20058;-60
2023/09/21 04:03:10;;;;;;;4.63;2.00;;;;;;;15.40;100.00;96193.75;4986250;28;20497;-59
2023/09/21 04:05:48;;;;;;;5.03;2.28;;;;;;;15.27;100.00;96205.56;5021563;28;20133;-59
2023/09/21 04:08:15;;;;;;;6.32;2.80;;;;;;;15.13;100.00;96200.97;5004963;28;20041;-59
2023/09/21 04:10:41;;;;;;;5.07;2.30;;;;;;;15.04;100.00;96200.91;5005596;28;20477;-60
2023/09/21 04:13:09;;;;;;;4.00;2.10;;;;;;;15.12;100.00;96198.56;4987462;28;20056;-60
2023/09/21 04:15:35;;;;;;;5.60;2.35;;;;;;;14.99;100.00;96194.78;5005758;28;20430;-60
2023/09/21 04:18:02;;;;;;;6.00;2.33;;;;;;;15.01;100.00;96190.66;5004035;28;20050;-57
2023/09/21 04:20:34;;;;;;;3.97;2.00;;;;;;;15.08;100.00;96192.94;4984928;28;20112;-60
2023/09/21 04:23:02;;;;;;;4.38;2.33;;;;;;;15.03;100.00;96191.13;4988821;28;22165;-59
2023/09/21 04:25:29;;;;;;;4.55;2.60;;;;;;;14.94;100.00;96176.63;5005602;28;20044;-59
2023/09/21 04:27:56;;;;;;;4.57;2.45;;;;;;;14.90;100.00;96179.19;4988150;28;20038;-59
2023/09/21 04:30:22;;;;;;;5.95;2.90;;;;;;;14.84;100.00;96177.69;4987425;28;20137;-60
2023/09/21 04:32:51;;;;;;;5.97;2.58;;;;;;;14.87;100.00;96168.91;4988741;28;20568;-60
2023/09/21 04:35:19;;;;;;;7.07;2.85;;;;;;;14.69;100.00;96171.47;4987749;28;20129;-60
2023/09/21 04:37:48;;;;;;;5.28;2.55;;;;;;;14.73;100.00;96168.09;4986923;28;20468;-61
2023/09/21 04:40:15;;;;;;;6.03;2.70;;;;;;;14.79;100.00;96170.44;4976767;28;20046;-60
2023/09/21 04:42:47;;;;;;;5.47;2.50;;;;;;;14.89;100.00;96176.75;4986081;28;20076;-60
2023/09/21 04:45:18;;;;;;;3.95;2.30;;;;;;;14.81;100.00;96176.38;4985804;28;20046;-60
2023/09/21 04:47:53;;;;;;;5.15;2.40;;;;;;;14.85;100.00;96179.28;4997885;28;20042;-60
2023/09/21 04:50:21;;;;;;;7.50;2.63;;;;;;;14.83;100.00;96181.53;4997026;28;20050;-60
2023/09/21 04:52:50;;;;;;;5.43;2.40;;;;;;;14.87;100.00;96174.34;4988591;28;20573;-60
2023/09/21 04:55:18;;;;;;;3.95;2.42;;;;;;;14.92;100.00;96174.22;4987184;28;20065;-58
2023/09/21 04:57:46;;;;;;;5.28;2.55;;;;;;;14.78;100.00;96168.03;4988402;28;20042;-60
2023/09/21 05:00:15;;;;;;;4.60;2.40;;;;;;;14.77;100.00;96169.13;4985439;28;20061;-60
2023/09/21 05:02:44;;;;;;;4.70;2.63;;;;;;;14.73;100.00;96177.09;4984316;28;20042;-60
2023/09/21 05:05:14;;;;;;;5.20;2.60;;;;;;;14.81;100.00;96170.13;4986305;28;20108;-60
2023/09/21 05:07:42;;;;;;;5.45;2.60;;;;;;;14.95;100.00;96178.25;4989822;28;20052;-60
2023/09/21 05:10:12;;;;;;;4.40;2.42;;;;;;;15.18;100.00;96164.59;5002534;28;20417;-60
2023/09/21 05:12:40;;;;;;;5.43;2.05;;;;;;;15.33;100.00;96157.94;4983046;28;20403;-60
2023/09/21 05:15:08;;;;;;;4.80;2.20;;;;;;;15.45;100.00;96165.56;5003044;28;20559;-60
2023/09/21 05:17:38;;;;;;;6.13;2.30;;;;;;;15.57;100.00;96156.78;5005427;28;20038;-60
2023/09/21 05:20:06;;;;;;;4.45;2.30;;;;;;;15.54;100.00;96152.75;5002680;28;20077;-60
2023/09/21 05:22:34;;;;;;;4.45;2.42;;;;;;;15.52;100.00;96149.50;5003922;28;20052;-59
2023/09/21 05:25:01;;;;;;;3.67;2.22;;;;;;;15.57;100.00;96154.84;5003629;28;20056;-60
2023/09/21 05:27:30;;;;;;;4.60;2.38;;;;;;;15.47;100.00;96155.94;5004310;28;20046;-60
2023/09/21 05:29:58;;;;;;;4.28;2.33;;;;;;;15.47;100.00;96155.13;5001924;28;20555;-60
2023/09/21 05:32:26;;;;;;;4.63;2.40;;;;;;;15.50;100.00;96149.03;5000854;28;20060;-60
2023/09/21 05:34:53;;;;;;;5.30;2.42;;;;;;;15.38;100.00;96154.28;5001577;28;20045;-60
2023/09/21 05:37:20;;;;;;;5.57;2.42;;;;;;;15.52;100.00;96135.09;5003277;28;20046;-60
2023/09/21 05:39:48;;;;;;;4.57;2.50;;;;;;;15.50;100.00;96145.50;5001641;28;20542;-60
2023/09/21 05:42:15;;;;;;;6.35;2.45;;;;;;;15.22;100.00;96141.03;5001216;28;20498;-60
2023/09/21 05:44:43;;;;;;;7.07;2.47;;;;;;;15.16;100.00;96147.75;5005145;28;20046;-61
2023/09/21 05:47:10;;;;;;;5.63;2.28;;;;;;;15.29;100.00;96141.41;5002465;28;20050;-60
2023/09/21 05:49:37;;;;;;;4.57;2.33;;;;;;;15.46;100.00;96137.16;5001583;28;20049;-61
2023/09/21 05:52:11;;;;;;;5.65;2.05;;;;;;;15.58;100.00;96140.09;5001586;28;20151;-60
2023/09/21 05:54:40;;;;;;;6.85;1.92;;;;;;;15.60;100.00;96146.03;5002553;28;20041;-60
2023/09/21 05:57:06;;;;;;;5.60;2.25;;;;;;;15.48;100.00;96140.34;5000657;28;20046;-60
2023/09/21 05:59:33;;;;;;;6.25;2.40;;;;;;;15.44;100.00;96142.91;5005690;28;20034;-60
2023/09/21 06:02:00;;;;;;;10.13;2.60;;;;;;;15.52;100.00;96137.81;5000535;28;20497;-60
2023/09/21 06:04:26;;;;;;;3.97;2.08;;;;;;;15.65;100.00;96134.19;5000714;28;20057;-60
2023/09/21 06:06:56;;;;;;;4.70;2.33;;;;;;;15.84;100.00;96133.09;5000361;28;20056;-60
2023/09/21 06:09:22;;;;;;;4.70;2.25;;;;;;;15.88;100.00;96122.38;5001583;28;20050;-59
2023/09/21 06:11:50;;;;;;;7.55;2.55;;;;;;;15.84;100.00;96133.91;4999566;28;20045;-60
2023/09/21 06:14:17;;;;;;;5.00;2.20;;;;;;;15.89;100.00;96127.50;5000489;28;20049;-60
2023/09/21 06:16:45;;;;;;;6.55;2.67;;;;;;;15.89;100.00;96123.97;5001938;28;20053;-60
2023/09/21 06:19:12;;;;;;;9.30;2.50;;;;;;;15.98;100.00;96120.19;5005138;28;20050;-60
2023/09/21 06:21:42;;;;;;;7.15;2.10;;;;;;;16.04;100.00;96122.75;5000388;28;20528;-62
2023/09/21 06:24:10;;;;;;;6.43;2.10;;;;;;;16.17;100.00;96120.97;4998371;28;20042;-60
2023/09/21 06:26:37;;;;;;;7.05;2.20;;;;;;;16.20;100.00;96123.91;5001612;28;20085;-60
2023/09/21 06:29:04;;;;;;;6.32;2.20;;;;;;;16.24;100.00;96130.34;5004589;28;20041;-60
2023/09/21 06:31:32;;;;;;;10.18;2.45;;;;;;;16.25;100.00;96133.84;5003420;28;20448;-60
2023/09/21 06:33:59;;;;;;;4.85;2.10;;;;;;;16.31;100.00;96137.22;5002472;28;20049;-59
2023/09/21 06:36:28;;;;;;;5.10;1.90;;;;;;;16.32;100.00;96138.84;5003485;28;20109;-60
2023/09/21 06:38:57;;;;;;;5.35;2.75;;;;;;;16.38;100.00;96137.56;5002540;28;20061;-60
2023/09/21 06:41:28;;;;;;;6.82;2.20;;;;;;;16.38;100.00;96141.13;5003354;28;20085;-60
2023/09/21 06:43:55;;;;;;;4.88;2.30;;;;;;;16.46;100.00;96134.03;5006727;28;20042;-60
2023/09/21 06:46:22;;;;;;;4.88;2.10;;;;;;;16.58;100.00;96135.34;5005703;28;20133;-60
2023/09/21 06:48:49;;;;;;;7.63;2.10;;;;;;;16.69;100.00;96136.59;5006119;28;20106;-59
2023/09/21 06:51:15;;;;;;;11.30;3.13;;;;;;;16.74;100.00;96138.38;5006766;28;20044;-60
2023/09/21 06:53:43;;;;;;;6.78;2.50;;;;;;;16.79;100.00;96140.94;5005064;28;20125;-60
2023/09/21 06:56:11;;;;;;;4.55;2.30;;;;;;;16.82;100.00;96136.75;5003927;28;20054;-61
2023/09/21 06:58:38;;;;;;;5.45;2.33;;;;;;;16.89;100.00;96134.34;5006758;28;20104;-60
2023/09/21 07:01:05;;;;;;;4.13;2.22;;;;;;;17.03;100.00;96134.94;5004731;28;20060;-59
2023/09/21 07:03:36;;;;;;;6.80;2.13;;;;;;;17.07;100.00;96131.59;5007449;28;20103;-59
2023/09/21 07:06:03;;;;;;;5.28;1.90;;;;;;;17.10;100.00;96126.28;5003831;28;20042;-61
2023/09/21 07:08:29;;;;;;;13.93;2.22;;;;;;;17.11;100.00;96116.16;5001485;28;20054;-61
2023/09/21 07:10:56;;;;;;;8.70;2.10;;;;;;;17.15;100.00;96123.38;5002076;28;20041;-61
2023/09/21 07:13:23;;;;;;;9.13;3.08;;;;;;;17.15;100.00;96120.63;5005382;28;20053;-61
2023/09/21 07:15:51;;;;;;;6.20;2.47;;;;;;;17.17;100.00;96120.31;5004127;28;20044;-61
2023/09/21 07:18:20;;;;;;;7.05;2.30;;;;;;;17.24;100.00;96120.63;5002751;28;20441;-61
2023/09/21 07:20:47;;;;;;;4.43;1.67;;;;;;;17.26;100.00;96120.28;5004507;28;20048;-60
2023/09/21 07:23:13;;;;;;;6.78;2.00;;;;;;;17.39;100.00;96115.72;5004276;28;20057;-59
2023/09/21 07:25:40;;;;;;;8.30;2.58;;;;;;;17.46;100.00;96109.78;5004821;28;20041;-61
2023/09/21 07:28:06;;;;;;;7.70;2.30;;;;;;;17.54;100.00;96109.72;5004621;28;20100;-61
2023/09/21 07:30:35;;;;;;;6.85;2.70;;;;;;;17.57;100.00;96104.75;5006382;28;20038;-61
2023/09/21 07:33:03;;;;;;;4.65;1.80;;;;;;;17.69;100.00;96091.13;5006422;28;20053;-61
2023/09/21 07:35:30;;;;;;;6.57;2.50;;;;;;;17.84;100.00;96089.75;5004182;28;20045;-61
2023/09/21 07:37:57;;;;;;;6.10;2.10;;;;;;;17.93;100.00;96086.97;5003814;28;20093;-60
2023/09/21 07:40:27;;;;;;;6.13;2.13;;;;;;;17.79;100.00;96090.78;5004702;28;20092;-61
2023/09/21 07:42:53;;;;;;;4.75;1.90;;;;;;;17.88;99.80;96087.97;5007475;28;20704;-62
2023/09/21 07:45:22;;;;;;;5.25;2.05;;;;;;;17.99;98.79;96080.16;5004390;28;20045;-63
2023/09/21 07:47:49;;;;;;;4.43;2.08;;;;;;;18.14;100.00;96080.75;5004283;28;20105;-62
2023/09/21 07:50:22;;;;;;;3.90;2.00;;;;;;;18.25;99.51;96083.91;5005698;28;20050;-61
2023/09/21 07:52:50;;;;;;;7.50;2.78;;;;;;;18.40;98.76;96083.31;5003743;28;20048;-61
2023/09/21 07:55:16;;;;;;;5.35;1.95;;;;;;;18.48;98.49;96080.81;5003350;28;20049;-61
2023/09/21 07:57:47;;;;;;;8.40;2.45;;;;;;;18.61;99.24;96078.94;5004398;28;20037;-61
2023/09/21 08:00:14;;;;;;;3.22;1.80;;;;;;;18.69;98.46;96075.31;5004350;28;20119;-61
2023/09/21 08:02:41;;;;;;;3.63;1.60;;;;;;;18.79;96.36;96085.06;5003686;28;20042;-62
2023/09/21 08:05:09;;;;;;;4.10;1.73;;;;;;;18.79;94.21;96080.38;5003378;28;20053;-61
2023/09/21 08:07:37;;;;;;;3.90;1.75;;;;;;;18.84;94.21;96079.38;4987717;28;20049;-61
2023/09/21 08:10:04;;;;;;;4.70;1.77;;;;;;;18.93;94.18;96076.50;5003213;28;20100;-61
2023/09/21 08:12:31;;;;;;;5.53;1.90;;;;;;;18.87;94.58;96072.41;5003298;28;20044;-61
2023/09/21 08:14:58;;;;;;;4.10;1.55;;;;;;;18.94;94.49;96059.72;5003139;28;20046;-60
2023/09/21 08:17:24;;;;;;;5.63;1.90;;;;;;;19.01;94.62;96063.88;5003541;28;20129;-61
2023/09/21 08:19:51;;;;;;;5.63;2.03;;;;;;;18.97;93.49;96063.72;5002582;28;20049;-62
2023/09/21 08:22:18;;;;;;;4.10;1.80;;;;;;;19.08;92.65;96064.13;5002943;28;20417;-60
2023/09/21 08:24:45;;;;;;;5.57;2.08;;;;;;;19.17;94.58;96064.03;5004002;28;20041;-58
2023/09/21 08:27:11;;;;;;;4.93;2.13;;;;;;;19.32;91.56;96066.09;5003305;28;20038;-61
2023/09/21 08:29:39;;;;;;;3.90;2.00;;;;;;;19.43;92.24;96066.47;4999652;28;20625;-61
2023/09/21 08:32:06;;;;;;;4.80;2.35;;;;;;;19.52;94.42;96071.84;5002196;28;20049;-58
2023/09/21 08:34:33;;;;;;;5.63;1.90;;;;;;;19.67;90.52;96066.78;4998299;28;20046;-60
2023/09/21 08:37:00;;;;;;;4.15;1.77;;;;;;;19.84;93.44;96080.31;5002630;28;20041;-60
2023/09/21 08:39:26;;;;;;;3.85;1.95;;;;;;;19.87;90.34;96081.56;5003288;28;20104;-61
2023/09/21 08:41:53;;;;;;;4.45;2.10;;;;;;;19.90;90.90;96089.09;5002217;28;20049;-60
2023/09/21 08:44:21;;;;;;;4.95;1.65;;;;;;;20.00;89.45;96085.91;5008284;28;20445;-60
2023/09/21 08:46:47;;;;;;;5.53;2.13;;;;;;;20.10;90.06;96092.91;5002561;28;20046;-57
2023/09/21 08:49:15;;;;;;;4.20;2.22;;;;;;;20.18;88.79;96096.66;5002743;28;20807;-58
2023/09/21 08:51:42;;;;;;;3.42;1.90;;;;;;;20.34;89.60;96088.47;5003144;28;20038;-60
2023/09/21 08:54:13;;;;;;;6.78;1.98;;;;;;;20.43;86.59;96076.53;5002285;28;20041;-59
2023/09/21 08:56:42;;;;;;;3.85;1.90;;;;;;;20.61;86.14;96068.81;5004915;28;20045;-60
2023/09/21 08:59:09;;;;;;;5.70;2.40;;;;;;;20.78;87.38;96070.44;5003595;28;20046;-59
2023/09/21 09:01:37;;;;;;;3.85;1.80;;;;;;;20.89;85.60;96060.56;5004396;28;20058;-60
2023/09/21 09:04:05;;;;;;;4.32;2.00;;;;;;;20.92;84.54;96059.88;5003815;28;20110;-61
2023/09/21 09:06:31;;;;;;;5.30;1.80;;;;;;;20.92;84.40;96051.63;5004802;28;20053;-60
2023/09/21 09:08:58;;;;;;;3.47;1.95;;;;;;;20.90;84.26;96053.13;5001254;28;20042;-58
2023/09/21 09:11:37;;;;;;;4.35;2.08;;;;;;;20.91;85.51;96046.47;5001954;28;20046;-64
2023/09/21 09:14:12;;;;;;;7.35;2.72;;;;;;;20.83;85.42;96039.13;5001275;28;20042;-61
2023/09/21 09:16:38;;;;;;;4.25;1.70;;;;;;;20.83;83.89;96056.44;5003108;28;20045;-62
2023/09/21 09:19:09;;;;;;;4.30;1.92;;;;;;;20.88;83.44;96044.41;5000617;28;20033;-60
2023/09/21 09:21:37;;;;;;;4.95;2.03;;;;;;;20.94;81.10;96045.75;5002232;28;20046;-61
2023/09/21 09:24:04;;;;;;;5.07;1.80;;;;;;;20.99;83.68;96044.69;5000097;28;20050;-60
2023/09/21 09:26:31;;;;;;;3.05;1.55;;;;;;;21.09;85.04;96040.63;5002233;28;20117;-60
2023/09/21 09:29:18;;;;;;;4.88;1.70;;;;;;;21.17;82.77;96037.72;5002342;28;20129;-58
2023/09/21 09:31:47;;;;;;;5.53;1.80;;;;;;;21.18;84.42;96028.28;5002144;28;20729;-61
2023/09/21 09:34:18;;;;;;;6.05;1.67;;;;;;;21.22;82.48;96028.38;5002225;28;20045;-60
2023/09/21 09:36:52;;;;;;;5.57;1.90;;;;;;;21.26;82.64;96028.47;5004408;28;20042;-59
2023/09/21 09:39:19;;;;;;;6.30;2.10;;;;;;;21.32;80.04;96032.53;5001334;28;20050;-60
2023/09/21 09:41:50;;;;;;;7.00;1.98;;;;;;;21.35;81.67;96015.31;5001912;28;20091;-59
2023/09/21 09:44:23;;;;;;;5.53;1.88;;;;;;;21.35;82.61;96012.56;5006306;28;20084;-60
2023/09/21 09:46:56;;;;;;;2.90;1.67;;;;;;;21.44;80.61;96013.19;5000424;28;20050;-60
2023/09/21 09:49:28;;;;;;;3.70;1.70;;;;;;;21.55;79.83;96009.88;5002336;28;20073;-60
2023/09/21 09:51:57;;;;;;;3.90;1.90;;;;;;;21.66;78.82;96012.88;5001358;28;20049;-60
2023/09/21 09:54:24;;;;;;;4.15;2.25;;;;;;;21.49;80.03;95998.31;5001991;28;20053;-59
2023/09/21 09:56:54;;;;;;;3.67;1.98;;;;;;;21.68;79.83;96003.09;5001166;28;20042;-59
2023/09/21 09:59:23;;;;;;;3.43;1.40;;;;;;;21.82;79.28;95999.88;5001905;28;20042;-60
2023/09/21 10:01:50;;;;;;;4.00;1.85;;;;;;;21.77;76.53;96000.19;5002426;28;20124;-60
2023/09/21 10:04:18;;;;;;;3.60;1.65;;;;;;;21.98;77.10;96001.81;5003540;28;20697;-59
2023/09/21 10:06:47;;;;;;;3.38;1.60;;;;;;;22.15;77.24;95997.81;5004082;28;20038;-60
2023/09/21 10:09:15;;;;;;;3.38;1.33;;;;;;;22.26;77.56;95992.53;5000386;28;20064;-60
2023/09/21 10:11:46;;;;;;;3.17;1.77;;;;;;;22.29;74.60;95994.56;5000890;28;20034;-59
2023/09/21 10:14:13;;;;;;;4.63;1.65;;;;;;;22.40;73.61;95997.53;4999339;28;20046;-60
2023/09/21 10:16:49;;;;;;;4.65;1.77;;;;;;;22.07;73.79;95993.31;5000560;28;20045;-59
2023/09/21 10:19:19;;;;;;;4.28;1.65;;;;;;;22.36;72.56;95996.66;5002826;28;20680;-59
2023/09/21 10:21:47;;;;;;;4.90;1.50;;;;;;;22.35;72.41;95993.13;5005300;28;20117;-60
2023/09/21 10:24:15;;;;;;;6.30;1.90;;;;;;;22.31;72.24;95983.97;5003707;28;20042;-60
2023/09/21 10:26:45;;;;;;;5.78;1.80;;;;;;;22.52;72.34;95991.06;5001971;28;20128;-60
2023/09/21 10:29:12;;;;;;;4.22;1.60;;;;;;;22.73;69.71;95984.38;5003866;28;20045;-60
2023/09/21 10:31:44;;;;;;;4.15;1.50;;;;;;;22.56;70.73;95983.69;5007015;28;20497;-59
2023/09/21 10:34:18;;;;;;;3.45;1.48;;;;;;;22.72;69.79;95983.59;5005811;28;20045;-60
2023/09/21 10:36:50;;;;;;;3.97;1.40;;;;;;;22.85;68.98;95978.69;5006967;28;20042;-60
2023/09/21 10:39:25;;;;;;;4.57;1.60;;;;;;;22.80;68.19;95975.44;5004523;28;20119;-59
2023/09/21 10:42:15;;;;;;;3.50;1.42;;;;;;;22.80;67.29;95972.66;5005352;28;20476;-59
2023/09/21 10:45:04;;;;;;;3.53;1.40;;;;;;;22.95;67.25;95960.72;4991840;28;20058;-59
2023/09/21 10:47:37;;;;;;;4.40;1.52;;;;;;;23.06;67.48;95968.38;5009484;28;20156;-60
2023/09/21 10:50:16;;;;;;;6.55;1.60;;;;;;;23.04;66.80;95965.19;5004182;28;20038;-59
2023/09/21 10:52:44;;;;;;;5.65;1.45;;;;;;;23.08;65.29;95963.28;5000590;28;20121;-59
2023/09/21 10:55:16;;;;;;;5.65;1.58;;;;;;;23.23;65.47;95956.84;5007901;28;20409;-59
2023/09/21 10:57:44;;;;;;;4.35;1.63;;;;;;;23.22;63.80;95954.47;5006993;28;20092;-59
2023/09/21 11:00:18;;;;;;;4.30;1.50;;;;;;;23.23;63.97;95948.56;5006332;28;20050;-59
2023/09/21 11:02:47;;;;;;;5.82;1.83;;;;;;;23.10;64.66;95950.72;5006632;28;20056;-59
2023/09/21 11:05:17;;;;;;;2.83;1.33;;;;;;;23.28;64.44;95941.91;5002872;28;20056;-58
2023/09/21 11:07:46;;;;;;;4.60;1.65;;;;;;;23.17;64.79;95939.00;5006777;28;20047;-58
2023/09/21 11:10:14;;;;;;;3.33;1.25;;;;;;;23.34;62.05;95932.19;5005832;28;20535;-59
2023/09/21 11:12:41;;;;;;;3.05;1.30;;;;;;;23.24;63.78;95930.03;5006487;28;20138;-59
2023/09/21 11:15:12;;;;;;;3.03;1.30;;;;;;;23.36;60.30;95934.56;5004350;28;20045;-59
2023/09/21 11:17:46;;;;;;;2.10;1.15;;;;;;;23.52;60.36;95934.41;5006507;28;20034;-58
2023/09/21 11:20:19;;;;;;;4.50;1.10;;;;;;;23.50;58.95;95934.78;5004744;28;20040;-60
2023/09/21 11:22:49;;;;;;;3.38;1.10;;;;;;;23.52;58.34;95929.66;5005920;28;20489;-59
2023/09/21 11:25:21;;;;;;;3.78;1.20;;;;;;;23.64;59.62;95931.44;5005338;28;20456;-59
2023/09/21 11:27:49;;;;;;;3.25;1.13;;;;;;;23.84;59.05;95922.22;4988652;28;20056;-60
2023/09/21 11:30:16;;;;;;;4.43;1.33;;;;;;;23.83;57.04;95915.06;5005039;28;20448;-60
2023/09/21 11:32:47;;;;;;;2.72;1.10;;;;;;;23.75;57.29;95898.41;5003862;28;20041;-59
2023/09/21 11:35:16;;;;;;;3.80;1.15;;;;;;;23.72;55.86;95898.34;5002797;28;20049;-59
2023/09/21 11:37:43;;;;;;;3.80;1.10;;;;;;;23.94;55.53;95896.66;5000597;28;20073;-59
2023/09/21 11:40:13;;;;;;;3.15;1.20;;;;;;;24.10;56.00;95887.38;5004440;28;20046;-59